Time;durP1;ratioP1;P1;durP2;ratioP2;P2;SDS_P1;SDS_P2;PMS_P1;PMS_P2;Temp;Humidity;BMP_temperature;BMP_pressure;BME280_temperature;BME280_humidity;BME280_pressure;Samples;Min_cycle;Max_cycle;Signal;HPM_P1;HPM_P2
2023/04/14 00:00:49;;;;;;;5.50;4.10;;;5.00;73.00;;;;;;5053488;28;20498;-50
2023/04/14 00:03:16;;;;;;;4.73;4.13;;;5.10;66.20;;;;;;5049178;28;20516;-50
2023/04/14 00:05:43;;;;;;;10.00;6.00;;;5.10;67.30;;;;;;5047654;28;20822;-50
2023/04/14 00:08:09;;;;;;;9.40;5.40;;;5.10;67.60;;;;;;5046219;28;20906;-50
2023/04/14 00:10:36;;;;;;;8.33;6.83;;;5.10;66.50;;;;;;5043003;28;20938;-50
2023/04/14 00:13:04;;;;;;;14.27;8.37;;;5.20;65.80;;;;;;5049133;28;20966;-51
2023/04/14 00:15:30;;;;;;;43.00;27.40;;;5.20;67.60;;;;;;5046836;28;20518;-50
2023/04/14 00:17:57;;;;;;;8.47;6.20;;;5.20;67.90;;;;;;5058510;28;20536;-51
2023/04/14 00:20:24;;;;;;;4.67;3.30;;;5.20;67.50;;;;;;5071847;28;20940;-50
2023/04/14 00:22:50;;;;;;;5.20;3.30;;;5.30;69.10;;;;;;5053907;28;20818;-50
2023/04/14 00:25:17;;;;;;;2.60;2.10;;;5.30;70.30;;;;;;5035412;28;20831;-50
2023/04/14 00:27:44;;;;;;;2.13;1.80;;;5.30;71.10;;;;;;5061621;28;20492;-51
2023/04/14 00:30:12;;;;;;;3.03;1.63;;;5.30;71.40;;;;;;5065180;28;20445;-49
2023/04/14 00:32:39;;;;;;;6.87;2.40;;;5.30;71.00;;;;;;5071366;28;21011;-49
2023/04/14 00:35:06;;;;;;;3.63;1.93;;;5.40;71.80;;;;;;5073440;28;20456;-51
2023/04/14 00:37:33;;;;;;;2.70;2.40;;;5.40;74.50;;;;;;5062086;28;20916;-50
2023/04/14 00:39:59;;;;;;;1.60;1.50;;;5.40;71.00;;;;;;5042188;28;20837;-52
2023/04/14 00:42:26;;;;;;;6.47;1.60;;;5.40;73.00;;;;;;5050850;28;20449;-50
2023/04/14 00:44:52;;;;;;;2.60;2.00;;;5.50;74.50;;;;;;5054807;28;20472;-50
2023/04/14 00:47:21;;;;;;;4.17;3.77;;;5.50;74.00;;;;;;5062124;28;20578;-50
2023/04/14 00:49:48;;;;;;;16.90;9.70;;;5.50;75.50;;;;;;5073458;28;20457;-50
2023/04/14 00:52:15;;;;;;;50.60;27.93;;;5.50;74.70;;;;;;5075067;28;20577;-50
2023/04/14 00:54:42;;;;;;;59.63;28.87;;;5.60;74.20;;;;;;5074774;28;20483;-50
2023/04/14 00:57:09;;;;;;;39.17;21.17;;;5.60;74.40;;;;;;5073844;22;20506;-55
2023/04/14 00:59:37;;;;;;;30.50;15.67;;;5.60;76.10;;;;;;5071536;28;20482;-54
2023/04/14 01:02:03;;;;;;;15.03;8.67;;;5.60;77.10;;;;;;5074479;28;21033;-54
2023/04/14 01:04:32;;;;;;;41.87;25.30;;;5.60;76.50;;;;;;5074035;28;20452;-54
2023/04/14 01:06:58;;;;;;;35.07;22.40;;;5.60;75.90;;;;;;5074103;28;20515;-56
2023/04/14 01:09:26;;;;;;;37.87;21.70;;;5.70;76.70;;;;;;5074536;28;20505;-55
2023/04/14 01:12:06;;;;;;;17.50;12.03;;;5.70;77.70;;;;;;5074356;28;20459;-53
2023/04/14 01:14:44;;;;;;;9.47;7.47;;;5.70;77.20;;;;;;5061250;28;20953;-54
2023/04/14 01:17:22;;;;;;;10.43;7.50;;;5.70;76.90;;;;;;5067897;28;20624;-55
2023/04/14 01:20:05;;;;;;;16.50;12.47;;;5.70;77.30;;;;;;5072752;28;21011;-54
2023/04/14 01:22:35;;;;;;;38.50;27.63;;;5.70;75.90;;;;;;5074211;28;20443;-56
2023/04/14 01:25:47;;;;;;;16.47;12.60;;;5.70;75.60;;;;;;5061541;28;20467;-54
2023/04/14 01:28:31;;;;;;;13.53;4.30;;;5.70;74.90;;;;;;5036665;28;20478;-55
2023/04/14 01:31:09;;;;;;;4.53;3.67;;;5.70;75.50;;;;;;5061897;28;20525;-54
2023/04/14 01:33:40;;;;;;;3.70;3.20;;;5.70;75.50;;;;;;5070233;28;20498;-54
2023/04/14 01:36:12;;;;;;;6.93;5.00;;;5.70;75.40;;;;;;5069854;28;20452;-55
2023/04/14 01:38:41;;;;;;;8.37;4.40;;;5.70;76.30;;;;;;5071494;28;20533;-55
2023/04/14 01:41:15;;;;;;;5.80;3.60;;;5.70;75.40;;;;;;5074068;28;20652;-54
2023/04/14 01:43:45;;;;;;;3.60;3.30;;;5.70;74.00;;;;;;5073553;28;20458;-54
2023/04/14 01:46:17;;;;;;;9.90;3.43;;;5.70;70.90;;;;;;5071105;28;20483;-56
2023/04/14 01:48:44;;;;;;;3.13;2.80;;;5.70;68.10;;;;;;5070314;28;20573;-56
2023/04/14 01:51:13;;;;;;;2.67;2.50;;;5.70;72.80;;;;;;5068107;28;20545;-55
2023/04/14 01:53:43;;;;;;;3.10;2.20;;;5.70;71.10;;;;;;5066374;28;20536;-54
2023/04/14 01:56:12;;;;;;;5.53;2.27;;;5.70;71.00;;;;;;5067465;28;20440;-56
2023/04/14 01:58:39;;;;;;;2.50;2.10;;;5.70;69.30;;;;;;5070340;28;20486;-55
2023/04/14 02:01:06;;;;;;;2.47;2.27;;;5.70;68.30;;;;;;5064966;28;20448;-55
2023/04/14 02:03:36;;;;;;;4.70;2.00;;;5.70;67.80;;;;;;5068618;28;20461;-53
2023/04/14 02:06:05;;;;;;;3.93;2.43;;;5.80;69.20;;;;;;5073296;28;20978;-54
2023/04/14 02:08:32;;;;;;;4.30;2.60;;;5.80;69.10;;;;;;5073432;28;20465;-54
2023/04/14 02:11:01;;;;;;;9.10;2.53;;;5.80;71.40;;;;;;5073601;28;20455;-55
2023/04/14 02:13:30;;;;;;;2.80;2.60;;;5.80;74.00;;;;;;5072036;28;20589;-54
2023/04/14 02:15:59;;;;;;;2.17;2.07;;;5.80;71.90;;;;;;5063479;28;20993;-54
2023/04/14 02:18:27;;;;;;;3.67;2.20;;;5.80;69.60;;;;;;5053212;28;20467;-53
2023/04/14 02:20:56;;;;;;;3.00;1.87;;;5.90;66.30;;;;;;5054112;28;20867;-54
2023/04/14 02:23:23;;;;;;;4.13;1.93;;;5.80;69.60;;;;;;5068572;28;20463;-54
2023/04/14 02:25:53;;;;;;;9.00;2.10;;;5.80;72.00;;;;;;5072724;28;20820;-55
2023/04/14 02:28:23;;;;;;;3.30;1.90;;;5.80;70.10;;;;;;5073104;28;20569;-54
2023/04/14 02:30:52;;;;;;;2.33;2.07;;;5.90;69.20;;;;;;5069252;28;21016;-55
2023/04/14 02:33:22;;;;;;;2.80;2.20;;;5.90;73.50;;;;;;5068507;28;20487;-55
2023/04/14 02:36:09;;;;;;;5.60;2.10;;;5.90;74.10;;;;;;5066148;28;21046;-56
2023/04/14 02:38:40;;;;;;;3.07;2.23;;;5.90;74.40;;;;;;5063332;28;20906;-54
2023/04/14 02:41:08;;;;;;;4.60;2.20;;;5.90;76.40;;;;;;5069649;28;20479;-55
2023/04/14 02:43:47;;;;;;;6.43;2.27;;;5.90;75.10;;;;;;5066656;28;20462;-53
2023/04/14 02:46:16;;;;;;;2.30;2.10;;;5.90;74.90;;;;;;5064270;28;20468;-55
2023/04/14 02:48:44;;;;;;;3.83;2.37;;;6.00;74.60;;;;;;5067966;28;20483;-55
2023/04/14 02:51:14;;;;;;;2.93;2.10;;;5.90;73.00;;;;;;5071151;28;20504;-54
2023/04/14 02:53:41;;;;;;;4.30;2.10;;;6.00;73.50;;;;;;5071682;28;20476;-55
2023/04/14 02:56:08;;;;;;;3.50;2.13;;;6.00;74.50;;;;;;5055311;28;20729;-56
2023/04/14 02:58:35;;;;;;;4.27;2.53;;;6.00;73.90;;;;;;5051845;28;20481;-54
2023/04/14 03:01:02;;;;;;;6.30;2.30;;;6.00;74.60;;;;;;5052500;28;20462;-53
2023/04/14 03:03:30;;;;;;;2.60;2.10;;;6.00;74.70;;;;;;5067920;28;20962;-54
2023/04/14 03:05:57;;;;;;;2.77;2.47;;;6.00;74.50;;;;;;5064867;28;20535;-54
2023/04/14 03:08:27;;;;;;;2.53;2.30;;;6.00;75.30;;;;;;5052034;28;20485;-54
2023/04/14 03:10:54;;;;;;;1.90;1.80;;;6.00;74.90;;;;;;5052198;28;20918;-54
2023/04/14 03:13:26;;;;;;;4.57;2.10;;;6.00;71.00;;;;;;5067489;28;20464;-54
2023/04/14 03:15:53;;;;;;;2.47;2.27;;;6.00;71.40;;;;;;5072149;28;20510;-55
2023/04/14 03:18:20;;;;;;;2.97;2.03;;;6.10;69.10;;;;;;5071950;28;20468;-54
2023/04/14 03:20:50;;;;;;;3.10;2.23;;;6.10;69.80;;;;;;5072058;28;20448;-55
2023/04/14 03:23:19;;;;;;;2.20;2.10;;;6.10;69.40;;;;;;5069739;28;20463;-54
2023/04/14 03:25:47;;;;;;;2.50;2.30;;;6.10;71.20;;;;;;5071587;28;20459;-55
2023/04/14 03:28:19;;;;;;;6.23;2.27;;;6.10;73.20;;;;;;5070210;28;20513;-54
2023/04/14 03:30:48;;;;;;;2.33;1.97;;;6.20;74.90;;;;;;5071918;28;20448;-54
2023/04/14 03:33:20;;;;;;;5.97;2.50;;;6.20;75.00;;;;;;5063844;28;20495;-55
2023/04/14 03:35:48;;;;;;;2.03;1.93;;;6.20;76.10;;;;;;5071916;28;20452;-55
2023/04/14 03:38:16;;;;;;;6.17;2.30;;;6.20;75.30;;;;;;5071966;28;20482;-55
2023/04/14 03:40:46;;;;;;;2.47;2.13;;;6.20;74.00;;;;;;5070619;28;20467;-56
2023/04/14 03:43:18;;;;;;;4.37;2.33;;;6.20;74.50;;;;;;5071167;28;20537;-55
2023/04/14 03:45:46;;;;;;;4.40;2.20;;;6.20;74.30;;;;;;5065536;28;20449;-56
2023/04/14 03:48:16;;;;;;;3.53;1.90;;;6.20;74.70;;;;;;5051519;28;20495;-53
2023/04/14 03:50:46;;;;;;;2.10;2.00;;;6.20;75.60;;;;;;5056380;28;20472;-54
2023/04/14 03:53:16;;;;;;;2.63;2.33;;;6.20;74.90;;;;;;5065104;28;20465;-55
2023/04/14 03:55:46;;;;;;;4.60;2.50;;;6.30;75.00;;;;;;5064959;28;20525;-55
2023/04/14 03:58:16;;;;;;;3.57;2.23;;;6.30;76.60;;;;;;5071104;28;20524;-54
2023/04/14 04:00:44;;;;;;;4.57;2.80;;;6.30;77.60;;;;;;5063531;28;20467;-54
2023/04/14 04:03:11;;;;;;;2.73;2.53;;;6.30;77.00;;;;;;5067889;28;20497;-53
2023/04/14 04:05:41;;;;;;;2.20;2.00;;;6.30;78.00;;;;;;5071330;28;20439;-54
2023/04/14 04:08:09;;;;;;;3.67;2.73;;;6.30;77.20;;;;;;5072363;28;20513;-54
2023/04/14 04:10:37;;;;;;;2.90;1.93;;;6.30;78.20;;;;;;5074603;28;20494;-54
2023/04/14 04:13:07;;;;;;;5.70;2.30;;;6.30;82.10;;;;;;5059999;28;20943;-54
2023/04/14 04:15:37;;;;;;;2.23;1.93;;;6.30;80.50;;;;;;5073039;28;20914;-54
2023/04/14 04:18:06;;;;;;;3.27;2.30;;;6.30;79.70;;;;;;5064505;28;20480;-53
2023/04/14 04:20:36;;;;;;;2.57;2.37;;;6.40;80.00;;;;;;5062877;28;20555;-55
2023/04/14 04:23:03;;;;;;;3.07;2.10;;;6.40;81.00;;;;;;5071569;28;20549;-54
2023/04/14 04:25:31;;;;;;;3.00;2.70;;;6.40;85.00;;;;;;5073975;28;20499;-53
2023/04/14 04:27:59;;;;;;;2.90;2.40;;;6.40;88.10;;;;;;5058303;28;20940;-54
2023/04/14 04:30:28;;;;;;;2.83;2.63;;;6.40;89.00;;;;;;5069031;28;20508;-54
2023/04/14 04:32:56;;;;;;;3.37;2.43;;;6.40;87.70;;;;;;5065809;28;20460;-54
2023/04/14 04:35:24;;;;;;;3.90;2.20;;;6.40;87.50;;;;;;5066418;28;20459;-55
2023/04/14 04:37:52;;;;;;;3.13;2.07;;;6.40;87.90;;;;;;5072929;28;20856;-55
2023/04/14 04:40:19;;;;;;;3.83;3.43;;;6.40;88.20;;;;;;5067561;28;20496;-54
2023/04/14 04:42:45;;;;;;;3.90;2.20;;;6.50;87.80;;;;;;5072531;28;20875;-55
2023/04/14 04:45:12;;;;;;;2.83;2.00;;;6.50;88.90;;;;;;5066472;28;20466;-55
2023/04/14 04:47:39;;;;;;;4.40;2.30;;;6.50;90.70;;;;;;5071685;28;21132;-54
2023/04/14 04:50:07;;;;;;;2.50;2.10;;;6.50;90.80;;;;;;5066228;28;20464;-54
2023/04/14 04:52:34;;;;;;;2.70;2.30;;;6.60;90.40;;;;;;5070490;28;20875;-54
2023/04/14 04:55:01;;;;;;;2.27;2.17;;;6.60;91.00;;;;;;5071866;28;20467;-54
2023/04/14 04:57:27;;;;;;;4.43;2.37;;;6.60;92.10;;;;;;5074482;28;20470;-54
2023/04/14 04:59:54;;;;;;;4.00;2.53;;;6.60;89.80;;;;;;5068694;28;20494;-55
2023/04/14 05:02:20;;;;;;;3.43;2.40;;;6.60;93.30;;;;;;5073240;28;20468;-56
2023/04/14 05:04:47;;;;;;;2.33;2.10;;;6.60;94.70;;;;;;5074216;28;20821;-54
2023/04/14 05:07:15;;;;;;;2.13;1.93;;;6.60;93.50;;;;;;5074235;28;20490;-54
2023/04/14 05:09:42;;;;;;;2.67;2.30;;;6.60;93.60;;;;;;5074634;28;20444;-54
2023/04/14 05:12:08;;;;;;;2.70;2.23;;;6.60;94.80;;;;;;5069185;28;20544;-54
2023/04/14 05:14:35;;;;;;;2.10;2.00;;;6.60;97.30;;;;;;5074142;28;20502;-56
2023/04/14 05:17:02;;;;;;;9.90;2.03;;;6.70;96.50;;;;;;5070504;28;20486;-54
2023/04/14 05:19:29;;;;;;;3.07;2.53;;;6.70;96.30;;;;;;5054265;28;20496;-54
2023/04/14 05:21:55;;;;;;;3.73;2.50;;;6.70;98.00;;;;;;5070375;28;20587;-55
2023/04/14 05:24:23;;;;;;;2.50;1.97;;;6.70;99.90;;;;;;5070772;28;20447;-53
2023/04/14 05:26:50;;;;;;;2.53;2.13;;;6.70;99.90;;;;;;5068875;28;20946;-56
2023/04/14 05:29:17;;;;;;;3.70;2.30;;;6.70;99.90;;;;;;5070959;28;20483;-54
2023/04/14 05:31:43;;;;;;;2.57;2.30;;;6.70;99.90;;;;;;5072193;28;20953;-55
2023/04/14 05:34:10;;;;;;;4.30;2.00;;;6.70;99.90;;;;;;5073334;28;20512;-55
2023/04/14 05:36:36;;;;;;;2.87;2.37;;;6.80;99.90;;;;;;5067702;28;20464;-54
2023/04/14 05:39:03;;;;;;;2.70;2.10;;;6.80;98.90;;;;;;5069982;28;26259;-56
2023/04/14 05:41:31;;;;;;;3.77;2.30;;;6.80;96.30;;;;;;5058836;28;20493;-56
2023/04/14 05:43:58;;;;;;;3.83;2.40;;;6.80;93.50;;;;;;5053182;28;20495;-55
2023/04/14 05:46:25;;;;;;;4.60;2.60;;;6.80;96.40;;;;;;5063907;28;20483;-54
2023/04/14 05:48:51;;;;;;;2.50;2.23;;;6.90;95.50;;;;;;5072494;28;20486;-54
2023/04/14 05:51:18;;;;;;;10.50;2.77;;;6.90;95.70;;;;;;5072725;28;20466;-56
2023/04/14 05:53:44;;;;;;;2.00;1.90;;;6.90;95.80;;;;;;5066722;28;20809;-56
2023/04/14 05:56:11;;;;;;;5.03;2.37;;;6.90;99.90;;;;;;5067689;28;20447;-55
2023/04/14 05:58:39;;;;;;;3.73;2.60;;;7.00;99.90;;;;;;5060676;28;20548;-53
2023/04/14 06:01:06;;;;;;;3.90;2.13;;;7.00;99.90;;;;;;5069741;28;20523;-57
2023/04/14 06:03:32;;;;;;;3.70;2.30;;;7.00;99.90;;;;;;5060662;28;20473;-55
2023/04/14 06:05:59;;;;;;;2.77;2.67;;;7.00;99.90;;;;;;5068319;28;20469;-56
2023/04/14 06:08:25;;;;;;;4.10;2.73;;;7.10;99.90;;;;;;5064579;28;20491;-55
2023/04/14 06:10:52;;;;;;;4.23;2.60;;;7.10;99.90;;;;;;5069220;28;20496;-55
2023/04/14 06:13:21;;;;;;;5.33;2.27;;;7.10;99.90;;;;;;5069914;28;20552;-54
2023/04/14 06:15:50;;;;;;;4.00;2.90;;;7.10;98.30;;;;;;5066298;28;20465;-55
2023/04/14 06:18:16;;;;;;;3.90;2.97;;;7.10;99.20;;;;;;5064651;28;20478;-53
2023/04/14 06:20:43;;;;;;;2.90;2.63;;;7.20;98.30;;;;;;5068748;28;20970;-55
2023/04/14 06:23:09;;;;;;;7.30;2.70;;;7.20;93.20;;;;;;5066469;28;20521;-53
2023/04/14 06:25:36;;;;;;;3.43;2.53;;;7.20;90.70;;;;;;5068501;28;20494;-55
2023/04/14 06:28:03;;;;;;;4.20;2.80;;;7.30;88.40;;;;;;5059765;28;20487;-54
2023/04/14 06:30:31;;;;;;;3.87;2.30;;;7.30;83.70;;;;;;5067973;28;20478;-53
2023/04/14 06:33:02;;;;;;;3.67;2.47;;;7.30;85.10;;;;;;5064605;28;21071;-54
2023/04/14 06:35:30;;;;;;;7.80;2.73;;;7.30;86.40;;;;;;5065451;28;20454;-56
2023/04/14 06:37:56;;;;;;;4.60;2.77;;;7.40;82.40;;;;;;5069335;28;20571;-54
2023/04/14 06:40:23;;;;;;;5.10;2.57;;;7.30;75.50;;;;;;5071652;28;20463;-56
2023/04/14 06:42:50;;;;;;;3.90;2.70;;;7.40;72.50;;;;;;5069435;28;20492;-56
2023/04/14 06:45:16;;;;;;;5.90;3.30;;;7.40;70.90;;;;;;5069518;28;21041;-53
2023/04/14 06:47:43;;;;;;;3.77;2.90;;;7.40;68.20;;;;;;5069431;28;20520;-55
2023/04/14 06:50:12;;;;;;;2.37;2.23;;;7.40;67.10;;;;;;5070099;28;20463;-55
2023/04/14 06:52:38;;;;;;;2.80;2.60;;;7.40;60.90;;;;;;5058935;28;20516;-54
2023/04/14 06:55:05;;;;;;;4.17;2.77;;;7.40;59.20;;;;;;5066686;28;20812;-54
2023/04/14 06:57:32;;;;;;;3.03;2.73;;;7.40;56.90;;;;;;5066020;22;20556;-52
2023/04/14 06:59:58;;;;;;;4.50;2.63;;;7.40;51.30;;;;;;5046799;28;20554;-52
2023/04/14 07:02:27;;;;;;;6.57;3.60;;;7.40;52.30;;;;;;5044357;28;20539;-52
2023/04/14 07:04:53;;;;;;;4.07;2.97;;;7.40;48.80;;;;;;5045565;28;20463;-52
2023/04/14 07:07:23;;;;;;;4.13;2.77;;;7.40;45.70;;;;;;5050532;28;20542;-52
2023/04/14 07:09:49;;;;;;;2.63;2.30;;;7.40;43.30;;;;;;5047251;28;20489;-52
2023/04/14 07:12:17;;;;;;;3.00;2.30;;;7.40;43.60;;;;;;5052723;28;20448;-52
2023/04/14 07:14:49;;;;;;;4.33;2.87;;;7.60;39.70;;;;;;5050645;28;20973;-52
2023/04/14 07:17:16;;;;;;;4.70;2.80;;;7.60;39.20;;;;;;5043699;28;20575;-52
2023/04/14 07:19:42;;;;;;;2.93;2.70;;;7.60;39.40;;;;;;5052338;28;21007;-53
2023/04/14 07:22:09;;;;;;;4.90;3.33;;;7.60;42.10;;;;;;5057660;28;20465;-52
2023/04/14 07:24:37;;;;;;;3.00;2.70;;;7.60;39.90;;;;;;5046984;28;20475;-52
2023/04/14 07:27:06;;;;;;;11.00;3.03;;;7.70;37.20;;;;;;5045919;28;20542;-52
2023/04/14 07:29:32;;;;;;;4.73;3.83;;;7.80;34.30;;;;;;5050065;28;20831;-52
2023/04/14 07:31:59;;;;;;;7.20;3.63;;;7.80;33.00;;;;;;5051267;28;20474;-52
2023/04/14 07:34:26;;;;;;;5.07;3.30;;;7.80;32.10;;;;;;5050171;28;20816;-51
2023/04/14 07:36:52;;;;;;;5.20;3.70;;;7.80;34.20;;;;;;5057963;28;20460;-52
2023/04/14 07:39:19;;;;;;;4.33;3.77;;;7.90;30.90;;;;;;5043532;28;20535;-52
2023/04/14 07:41:47;;;;;;;8.17;3.97;;;7.90;28.30;;;;;;5052369;28;20464;-51
2023/04/14 07:44:13;;;;;;;3.90;3.50;;;8.00;26.50;;;;;;5043385;28;20491;-52
2023/04/14 07:46:40;;;;;;;4.67;3.60;;;8.00;25.20;;;;;;5054118;28;20444;-51
2023/04/14 07:49:06;;;;;;;4.57;4.17;;;8.00;27.80;;;;;;5049246;28;20534;-52
2023/04/14 07:51:33;;;;;;;5.33;3.50;;;8.10;28.10;;;;;;5050986;28;20493;-51
2023/04/14 07:54:00;;;;;;;5.47;3.77;;;8.20;26.70;;;;;;5046509;28;20468;-52
2023/04/14 07:56:26;;;;;;;3.87;3.50;;;8.30;24.60;;;;;;5061794;28;20464;-51
2023/04/14 07:58:54;;;;;;;5.90;4.73;;;8.30;22.50;;;;;;5049191;28;21549;-52
2023/04/14 08:01:21;;;;;;;5.80;3.77;;;8.30;22.50;;;;;;5053317;28;20527;-52
2023/04/14 08:03:48;;;;;;;4.03;3.70;;;8.40;21.70;;;;;;5047079;28;20473;-51
2023/04/14 08:06:15;;;;;;;5.77;4.37;;;8.40;22.20;;;;;;5051866;28;20457;-52
2023/04/14 08:08:42;;;;;;;7.43;4.47;;;8.50;74.00;;;;;;5048858;28;20601;-51
2023/04/14 08:11:09;;;;;;;7.43;5.00;;;8.50;78.00;;;;;;5048573;28;20465;-51
2023/04/14 08:13:35;;;;;;;7.73;5.67;;;8.50;82.50;;;;;;5052093;28;20951;-51
2023/04/14 08:16:03;;;;;;;8.77;6.20;;;8.50;75.10;;;;;;5053327;28;20539;-51
2023/04/14 08:18:30;;;;;;;6.40;5.07;;;8.50;21.30;;;;;;5049816;28;21264;-52
2023/04/14 08:20:56;;;;;;;7.10;4.23;;;8.50;22.10;;;;;;5050718;28;20490;-52
2023/04/14 08:23:23;;;;;;;4.83;4.37;;;8.50;21.60;;;;;;5043615;28;20484;-52
2023/04/14 08:25:50;;;;;;;4.30;3.90;;;8.40;23.10;;;;;;5052012;28;20483;-51
2023/04/14 08:28:17;;;;;;;6.03;3.40;;;8.40;23.00;;;;;;5060487;28;20512;-51
2023/04/14 08:30:43;;;;;;;3.57;3.27;;;8.40;24.20;;;;;;5052597;28;20857;-51
2023/04/14 08:33:11;;;;;;;6.87;5.17;;;8.40;23.40;;;;;;5043891;28;20489;-52
2023/04/14 08:35:38;;;;;;;11.07;10.00;;;8.40;22.90;;;;;;5052860;28;20860;-52
2023/04/14 08:38:04;;;;;;;8.17;4.03;;;8.40;21.70;;;;;;5043776;28;20855;-52
2023/04/14 08:40:36;;;;;;;4.20;3.30;;;8.40;24.00;;;;;;5057277;28;20462;-53
2023/04/14 08:43:03;;;;;;;4.43;2.90;;;8.30;81.70;;;;;;5050781;28;20466;-52
2023/04/14 08:45:31;;;;;;;4.37;2.57;;;8.40;99.90;;;;;;5050311;28;20962;-54
2023/04/14 08:47:58;;;;;;;3.87;3.50;;;8.40;99.90;;;;;;5033960;28;20484;-52
2023/04/14 08:50:31;;;;;;;2.80;2.60;;;8.40;82.70;;;;;;5038294;28;21086;-52
2023/04/14 08:53:02;;;;;;;4.43;2.73;;;8.40;86.50;;;;;;5047055;28;20550;-53
2023/04/14 08:55:30;;;;;;;6.13;3.20;;;8.50;99.90;;;;;;5051296;28;20468;-52
2023/04/14 08:57:57;;;;;;;5.20;3.07;;;8.50;99.90;;;;;;5053301;28;20500;-51
2023/04/14 09:00:25;;;;;;;4.67;3.27;;;8.40;98.50;;;;;;5053237;28;20483;-51
2023/04/14 09:02:52;;;;;;;6.10;4.27;;;8.50;99.90;;;;;;5055877;28;20526;-52
2023/04/14 09:05:19;;;;;;;5.63;3.30;;;8.50;99.90;;;;;;5050774;28;20458;-52
2023/04/14 09:07:47;;;;;;;4.53;3.87;;;8.60;99.90;;;;;;5052472;28;20512;-51
2023/04/14 09:10:14;;;;;;;3.60;3.40;;;8.70;99.90;;;;;;5040579;28;20506;-52
2023/04/14 09:12:42;;;;;;;4.20;3.43;;;8.80;99.90;;;;;;5040896;28;20493;-53
2023/04/14 09:15:10;;;;;;;4.70;3.30;;;8.80;99.90;;;;;;5043741;28;20518;-52
2023/04/14 09:17:36;;;;;;;9.13;5.07;;;8.80;20.20;;;;;;5043447;28;20472;-52
2023/04/14 09:20:04;;;;;;;4.70;4.30;;;8.90;20.30;;;;;;5042097;28;20511;-51
2023/04/14 09:22:31;;;;;;;4.27;3.90;;;8.90;21.30;;;;;;5040996;28;20517;-51
2023/04/14 09:24:59;;;;;;;6.03;4.63;;;8.90;22.10;;;;;;5046150;28;20475;-52
2023/04/14 09:27:26;;;;;;;4.50;3.87;;;8.90;25.10;;;;;;5053061;28;20513;-51
2023/04/14 09:29:56;;;;;;;3.10;2.87;;;8.90;25.00;;;;;;5053176;28;20578;-52
2023/04/14 09:32:22;;;;;;;3.70;3.40;;;9.00;24.40;;;;;;5051523;28;20551;-51
2023/04/14 09:34:53;;;;;;;4.20;3.83;;;9.10;21.80;;;;;;5051637;28;20491;-52
2023/04/14 09:37:20;;;;;;;5.07;4.67;;;9.00;23.10;;;;;;5058661;28;20564;-51
2023/04/14 09:39:48;;;;;;;5.90;4.47;;;9.00;20.70;;;;;;5046424;28;20823;-51
2023/04/14 09:42:17;;;;;;;4.37;3.83;;;9.00;20.60;;;;;;5048348;28;20484;-52
2023/04/14 09:44:54;;;;;;;7.43;3.70;;;8.80;39.80;;;;;;5049376;28;20499;-52
2023/04/14 09:47:22;;;;;;;3.57;3.27;;;8.60;31.70;;;;;;5050292;28;20893;-52
2023/04/14 09:49:57;;;;;;;5.17;4.37;;;8.70;20.80;;;;;;5049464;28;20484;-52
2023/04/14 09:52:36;;;;;;;6.33;4.50;;;8.90;99.90;;;;;;5040457;28;20536;-51
2023/04/14 09:55:06;;;;;;;8.60;4.27;;;8.90;99.90;;;;;;5047823;28;20958;-52
2023/04/14 09:57:36;;;;;;;3.50;3.30;;;8.90;73.30;;;;;;5048288;28;20493;-52
2023/04/14 10:00:04;;;;;;;5.40;3.43;;;8.70;30.30;;;;;;5059174;28;20464;-52
2023/04/14 10:02:30;;;;;;;2.90;2.80;;;8.80;26.80;;;;;;5043319;28;20517;-51
2023/04/14 10:05:05;;;;;;;4.60;2.97;;;8.70;27.70;;;;;;5053195;28;20499;-51
2023/04/14 10:07:32;;;;;;;2.83;2.50;;;8.60;40.00;;;;;;5052533;28;21295;-51
2023/04/14 10:10:05;;;;;;;2.60;2.47;;;8.60;32.70;;;;;;5045116;28;20514;-52
2023/04/14 10:12:33;;;;;;;4.03;3.13;;;8.70;34.40;;;;;;5051712;28;20978;-52
2023/04/14 10:15:00;;;;;;;3.23;3.03;;;8.70;26.90;;;;;;5046857;28;20473;-51
2023/04/14 10:17:27;;;;;;;4.27;3.87;;;8.80;26.50;;;;;;5038689;28;20909;-50
2023/04/14 10:19:53;;;;;;;4.70;4.30;;;8.80;23.70;;;;;;5041554;28;20513;-52
2023/04/14 10:22:22;;;;;;;4.20;3.80;;;8.90;24.50;;;;;;5044702;28;20464;-52
2023/04/14 10:24:50;;;;;;;5.33;3.50;;;8.90;23.80;;;;;;5044877;28;20471;-52
2023/04/14 10:27:17;;;;;;;4.47;3.27;;;8.70;27.60;;;;;;5033933;28;20584;-51
2023/04/14 10:29:46;;;;;;;4.17;3.40;;;8.70;28.00;;;;;;5031390;28;20547;-51
2023/04/14 10:32:16;;;;;;;10.73;4.23;;;8.80;22.30;;;;;;5048645;28;21082;-51
2023/04/14 10:34:56;;;;;;;4.40;3.70;;;8.80;23.20;;;;;;5051387;28;20473;-51
2023/04/14 10:37:23;;;;;;;4.47;4.17;;;8.80;24.30;;;;;;5053719;28;20494;-52
2023/04/14 10:39:55;;;;;;;4.13;3.80;;;8.70;25.30;;;;;;5047848;28;20491;-52
2023/04/14 10:42:21;;;;;;;4.30;4.00;;;8.60;29.20;;;;;;5042489;28;20469;-52
2023/04/14 10:45:03;;;;;;;6.03;4.30;;;8.60;29.00;;;;;;5036275;28;20499;-51
2023/04/14 10:47:29;;;;;;;5.10;4.70;;;8.80;78.20;;;;;;5034793;28;20485;-51
2023/04/14 10:49:56;;;;;;;4.67;4.27;;;8.70;25.50;;;;;;5039373;28;20568;-51
2023/04/14 10:52:32;;;;;;;4.27;3.97;;;8.70;24.00;;;;;;5037215;28;20989;-51
2023/04/14 10:55:06;;;;;;;4.33;3.97;;;8.70;29.40;;;;;;5031834;28;20466;-51
2023/04/14 10:57:37;;;;;;;4.80;4.00;;;8.70;24.70;;;;;;5036206;28;20498;-58
2023/04/14 11:00:22;;;;;;;6.27;4.17;;;8.70;21.50;;;;;;5041487;28;20509;-52
2023/04/14 11:02:55;;;;;;;3.70;3.40;;;8.70;23.40;;;;;;5050225;28;20465;-51
2023/04/14 11:05:22;;;;;;;6.90;3.47;;;8.60;25.80;;;;;;5052872;28;20447;-51
2023/04/14 11:07:54;;;;;;;5.63;3.17;;;8.60;25.30;;;;;;5052250;28;20479;-51
2023/04/14 11:10:26;;;;;;;5.57;3.77;;;8.50;27.20;;;;;;5052474;28;21072;-51
2023/04/14 11:12:56;;;;;;;3.30;3.00;;;8.70;75.80;;;;;;5042793;28;20553;-52
2023/04/14 11:15:24;;;;;;;4.70;3.17;;;8.60;22.60;;;;;;5036016;28;20470;-51
2023/04/14 11:17:51;;;;;;;3.47;2.93;;;8.50;29.80;;;;;;5034397;28;20476;-51
2023/04/14 11:20:19;;;;;;;3.13;2.83;;;8.40;28.30;;;;;;5032360;28;20494;-51
2023/04/14 11:22:47;;;;;;;3.00;2.80;;;8.50;21.90;;;;;;5042669;28;20547;-51
2023/04/14 11:25:15;;;;;;;2.97;2.80;;;8.40;32.50;;;;;;5050735;28;20473;-52
2023/04/14 11:27:43;;;;;;;5.13;3.00;;;8.50;22.20;;;;;;5051210;28;20490;-51
2023/04/14 11:30:14;;;;;;;2.73;2.63;;;8.40;35.10;;;;;;5052589;28;20508;-51
2023/04/14 11:32:50;;;;;;;2.97;2.77;;;8.30;28.30;;;;;;5035744;28;20496;-51
2023/04/14 11:35:16;;;;;;;2.57;2.37;;;8.40;27.00;;;;;;5035615;28;20464;-51
2023/04/14 11:37:45;;;;;;;2.70;2.50;;;8.30;33.40;;;;;;5034073;28;20492;-51
2023/04/14 11:40:13;;;;;;;3.60;3.33;;;8.30;24.00;;;;;;5032294;28;20458;-51
2023/04/14 11:42:44;;;;;;;4.30;3.10;;;8.30;75.30;;;;;;5039296;28;20551;-51
2023/04/14 11:45:12;;;;;;;4.70;4.47;;;8.30;21.50;;;;;;5046689;28;20491;-52
2023/04/14 11:47:39;;;;;;;4.63;2.93;;;8.30;24.90;;;;;;5044725;28;20497;-51
2023/04/14 11:50:08;;;;;;;4.37;2.77;;;8.20;25.70;;;;;;5053784;28;20483;-51
2023/04/14 11:52:35;;;;;;;3.03;2.83;;;8.30;73.50;;;;;;5042953;28;20466;-51
2023/04/14 11:55:02;;;;;;;3.67;3.30;;;8.30;77.70;;;;;;5035308;28;20465;-52
2023/04/14 11:57:29;;;;;;;2.60;2.50;;;8.20;23.50;;;;;;5035191;28;20488;-52
2023/04/14 11:59:56;;;;;;;5.50;2.97;;;8.30;21.50;;;;;;5038993;28;20556;-52
2023/04/14 12:02:23;;;;;;;3.53;3.10;;;8.10;23.90;;;;;;5035782;28;20500;-52
2023/04/14 12:04:50;;;;;;;6.17;3.50;;;8.10;23.20;;;;;;5034425;28;20502;-52
2023/04/14 12:07:19;;;;;;;3.33;3.03;;;8.20;92.40;;;;;;5036098;28;20527;-52
2023/04/14 12:09:47;;;;;;;3.67;3.30;;;8.20;95.50;;;;;;5035004;28;20490;-51
2023/04/14 12:12:16;;;;;;;2.63;2.53;;;8.20;99.90;;;;;;5030166;28;20502;-51
2023/04/14 12:14:44;;;;;;;3.70;3.40;;;8.20;99.90;;;;;;5040742;28;20495;-51
2023/04/14 12:17:12;;;;;;;4.33;3.17;;;8.20;99.90;;;;;;5048752;28;20488;-51
2023/04/14 12:19:39;;;;;;;3.70;3.23;;;8.00;84.20;;;;;;5050873;28;20548;-51
2023/04/14 12:22:06;;;;;;;3.67;3.37;;;8.10;99.90;;;;;;5046183;28;20522;-52
2023/04/14 12:24:35;;;;;;;4.80;4.40;;;8.10;99.90;;;;;;5048657;28;20469;-51
2023/04/14 12:27:04;;;;;;;4.30;4.00;;;8.20;99.90;;;;;;5040625;28;20558;-52
2023/04/14 12:29:31;;;;;;;8.87;4.27;;;8.20;99.90;;;;;;5048733;28;20485;-51
2023/04/14 12:31:58;;;;;;;3.83;3.53;;;8.20;99.90;;;;;;5051055;28;20476;-51
2023/04/14 12:34:25;;;;;;;4.07;3.77;;;8.20;99.90;;;;;;5050735;28;20972;-51
2023/04/14 12:36:52;;;;;;;3.50;3.20;;;8.20;99.90;;;;;;5053684;28;20468;-51
2023/04/14 12:39:20;;;;;;;5.20;3.80;;;8.30;99.90;;;;;;5058207;28;20469;-51
2023/04/14 12:41:48;;;;;;;4.37;3.97;;;8.20;99.90;;;;;;5059779;28;20462;-51
2023/04/14 12:44:16;;;;;;;5.83;3.70;;;8.30;99.90;;;;;;5057537;28;20488;-53
2023/04/14 12:46:48;;;;;;;4.93;3.87;;;8.30;99.90;;;;;;5055444;28;20493;-51
2023/04/14 12:49:32;;;;;;;3.77;3.57;;;8.40;99.90;;;;;;5056224;28;20496;-52
2023/04/14 12:51:59;;;;;;;4.10;3.70;;;8.30;99.90;;;;;;5052060;28;20496;-52
2023/04/14 12:54:26;;;;;;;6.53;4.20;;;8.30;99.90;;;;;;5049514;28;20512;-52
2023/04/14 12:56:54;;;;;;;3.40;3.17;;;8.20;99.90;;;;;;5054491;28;20464;-53
2023/04/14 12:59:21;;;;;;;4.10;3.80;;;8.20;99.90;;;;;;5063062;22;20968;-50
2023/04/14 13:01:47;;;;;;;3.60;3.40;;;8.20;99.90;;;;;;5044709;28;20458;-50